Terminal Aerodrome Forecast
Issued by NWS

Home | Current Version | Previous Version | Text Only | Print | Product List | Glossary On
Versions: 1 2 3 4 5 6 7 8 9 10 11 12 13 14 15 16 17 18 19
000
FTUS41 KCAR 251546 AAB
TAFBHB
TAF AMD
KBHB 251546Z 2516/2612 21014G22KT 5SM -RA BR OVC009 WS020/23045KT
     FM251700 24012G21KT P6SM BKN035
     FM260400 25009KT P6SM SCT040
      AMD LTD TO CLD VIS AND WIND=

USA.gov is the U.S. government's official web portal to all federal, state and local government web resources and services.